createdAt,value
2023-02-19T00:00:34.402Z,9.40
2023-02-19T00:03:04.943Z,9.40
2023-02-19T00:05:36.924Z,9.50
2023-02-19T00:08:07.448Z,9.40
2023-02-19T00:10:35.724Z,9.30
2023-02-19T00:13:03.897Z,9.30
2023-02-19T00:15:34.153Z,9.20
2023-02-19T00:18:03.558Z,9.20
2023-02-19T00:20:31.922Z,9.20
2023-02-19T00:23:04.617Z,9.20
2023-02-19T00:25:37.600Z,9.20
2023-02-19T00:28:06.598Z,9.20
2023-02-19T00:30:36.283Z,9.10
2023-02-19T00:33:08.636Z,9.20
2023-02-19T00:35:37.312Z,9.20
2023-02-19T00:38:09.441Z,9.20
2023-02-19T00:40:37.624Z,9.20
2023-02-19T00:43:09.248Z,9.20
2023-02-19T00:45:37.504Z,9.30
2023-02-19T00:48:06.032Z,9.20
2023-02-19T00:50:39.788Z,9.20
2023-02-19T00:53:09.316Z,9.20
2023-02-19T00:55:40.484Z,9.20
2023-02-19T00:58:08.839Z,9.20
2023-02-19T01:00:36.892Z,9.20
2023-02-19T01:03:05.080Z,9.20
2023-02-19T01:05:33.455Z,9.20
2023-02-19T01:08:01.787Z,9.20
2023-02-19T01:10:35.398Z,9.20
2023-02-19T01:13:04.266Z,9.20
2023-02-19T01:15:35.563Z,9.30
2023-02-19T01:18:06.961Z,9.30
2023-02-19T01:20:35.390Z,9.20
2023-02-19T01:23:03.947Z,9.20
2023-02-19T01:25:37.606Z,9.20
2023-02-19T01:28:06.039Z,9.20
2023-02-19T01:30:40.518Z,9.20
2023-02-19T01:33:10.221Z,9.20
2023-02-19T01:35:40.711Z,9.30
2023-02-19T01:38:09.881Z,9.30
2023-02-19T01:40:54.315Z,9.20
2023-02-19T01:43:22.575Z,9.20
2023-02-19T01:45:52.301Z,9.20
2023-02-19T01:48:24.993Z,9.20
2023-02-19T01:51:02.769Z,9.30
2023-02-19T01:53:35.886Z,9.20
2023-02-19T01:56:07.512Z,9.20
2023-02-19T01:58:40.376Z,9.30
2023-02-19T02:01:17.231Z,9.20
2023-02-19T02:03:51.139Z,9.20
2023-02-19T02:06:28.384Z,9.20
2023-02-19T02:09:16.442Z,9.20
2023-02-19T02:11:55.676Z,9.20
2023-02-19T02:14:28.763Z,9.20
2023-02-19T02:17:08.051Z,9.20
2023-02-19T02:20:09.487Z,9.20
2023-02-19T02:22:46.017Z,9.10
2023-02-19T02:25:42.107Z,9.10
2023-02-19T02:28:27.444Z,9.00
2023-02-19T02:31:00.778Z,8.90
2023-02-19T02:33:44.526Z,8.90
2023-02-19T02:36:19.539Z,8.90
2023-02-19T02:39:00.695Z,8.90
2023-02-19T02:41:31.846Z,9.00
2023-02-19T02:43:59.794Z,8.90
2023-02-19T02:46:37.278Z,8.90
2023-02-19T02:49:09.916Z,8.90
2023-02-19T02:51:44.672Z,9.00
2023-02-19T02:54:33.427Z,8.90
2023-02-19T02:57:04.787Z,8.90
2023-02-19T02:59:37.412Z,8.80
2023-02-19T03:02:11.722Z,8.80
2023-02-19T03:05:07.745Z,8.60
2023-02-19T03:07:43.159Z,8.60
2023-02-19T03:10:23.776Z,8.60
2023-02-19T03:13:14.522Z,8.50
2023-02-19T03:16:16.688Z,8.60
2023-02-19T03:19:08.843Z,8.60
2023-02-19T03:21:43.485Z,8.60
2023-02-19T03:24:32.612Z,8.60
2023-02-19T03:27:05.590Z,8.60
2023-02-19T03:29:36.860Z,8.60
2023-02-19T03:32:22.447Z,8.60
2023-02-19T03:35:04.705Z,8.70
2023-02-19T03:37:38.788Z,8.60
2023-02-19T03:40:19.895Z,8.70
2023-02-19T03:43:06.683Z,8.60
2023-02-19T03:45:48.050Z,8.70
2023-02-19T03:48:38.099Z,8.70
2023-02-19T03:51:22.052Z,8.70
2023-02-19T03:53:57.032Z,8.80
2023-02-19T03:56:32.181Z,8.90
2023-02-19T03:59:06.657Z,8.80
2023-02-19T04:01:43.940Z,8.80
2023-02-19T04:04:21.662Z,8.80
2023-02-19T04:07:02.606Z,8.60
2023-02-19T04:09:39.520Z,8.50
2023-02-19T04:12:11.411Z,8.40
2023-02-19T04:14:44.343Z,8.50
2023-02-19T04:17:18.725Z,8.50
2023-02-19T04:19:58.606Z,8.50
2023-02-19T04:22:36.101Z,8.40
2023-02-19T04:25:06.830Z,8.40
2023-02-19T04:27:38.180Z,8.40
2023-02-19T04:30:09.872Z,8.40
2023-02-19T04:32:38.210Z,8.40
2023-02-19T04:35:11.705Z,8.40
2023-02-19T04:37:44.793Z,8.40
2023-02-19T04:40:18.692Z,8.40
2023-02-19T04:42:49.528Z,8.50
2023-02-19T04:45:18.137Z,8.50
2023-02-19T04:47:51.480Z,8.50
2023-02-19T04:50:20.246Z,8.60
2023-02-19T04:52:49.920Z,8.60
2023-02-19T04:55:20.861Z,8.60
2023-02-19T04:57:51.477Z,8.50
2023-02-19T05:00:20.168Z,8.50
2023-02-19T05:02:48.250Z,8.60
2023-02-19T05:05:20.003Z,8.50
2023-02-19T05:07:52.785Z,8.50
2023-02-19T05:10:20.834Z,8.50
2023-02-19T05:12:52.140Z,8.50
2023-02-19T05:15:24.625Z,8.50
2023-02-19T05:17:52.777Z,8.50
2023-02-19T05:20:23.118Z,8.40
2023-02-19T05:22:56.864Z,8.50
2023-02-19T05:25:25.159Z,8.50
2023-02-19T05:28:13.130Z,8.50
2023-02-19T05:30:41.729Z,8.50
2023-02-19T05:33:10.268Z,8.50
2023-02-19T05:35:42.952Z,8.50
2023-02-19T05:38:13.271Z,8.50
2023-02-19T05:40:42.037Z,8.50
2023-02-19T05:43:11.104Z,8.50
2023-02-19T05:45:40.226Z,8.60
2023-02-19T05:48:09.378Z,8.60
2023-02-19T05:50:39.890Z,8.60
2023-02-19T05:53:08.390Z,8.60
2023-02-19T05:55:38.161Z,8.60
2023-02-19T05:58:06.633Z,8.60
2023-02-19T06:00:38.333Z,8.60
2023-02-19T06:03:07.182Z,8.60
2023-02-19T06:05:35.792Z,8.50
2023-02-19T06:08:11.520Z,8.50
2023-02-19T06:10:42.325Z,8.50
2023-02-19T06:13:17.848Z,8.50
2023-02-19T06:15:46.458Z,8.50
2023-02-19T06:18:17.212Z,8.50
2023-02-19T06:20:45.512Z,8.50
2023-02-19T06:23:13.614Z,8.50
2023-02-19T06:25:43.595Z,8.50
2023-02-19T06:28:11.914Z,8.50
2023-02-19T06:30:42.027Z,8.50
2023-02-19T06:33:10.525Z,8.50
2023-02-19T06:35:44.593Z,8.60
2023-02-19T06:38:12.833Z,8.70
2023-02-19T06:40:42.685Z,8.80
2023-02-19T06:43:10.681Z,8.90
2023-02-19T06:45:38.880Z,8.90
2023-02-19T06:48:09.670Z,8.80
2023-02-19T06:50:41.019Z,8.80
2023-02-19T06:53:12.569Z,8.70
2023-02-19T06:55:44.246Z,8.70
2023-02-19T06:58:12.645Z,8.80
2023-02-19T07:00:42.906Z,8.90
2023-02-19T07:03:20.764Z,9.00
2023-02-19T07:05:49.972Z,8.90
2023-02-19T07:08:23.260Z,8.90
2023-02-19T07:10:58.410Z,8.90
2023-02-19T07:13:45.369Z,8.80
2023-02-19T07:16:18.009Z,8.80
2023-02-19T07:18:46.773Z,8.80
2023-02-19T07:21:16.488Z,8.80
2023-02-19T07:23:46.494Z,8.80
2023-02-19T07:26:18.070Z,8.80
2023-02-19T07:28:47.331Z,8.80
2023-02-19T07:31:16.494Z,8.90
2023-02-19T07:33:48.032Z,9.00
2023-02-19T07:36:18.135Z,9.00
2023-02-19T07:38:46.996Z,9.00
2023-02-19T07:41:19.661Z,9.00
2023-02-19T07:43:52.581Z,9.10
2023-02-19T07:46:23.780Z,9.10
2023-02-19T07:49:04.706Z,9.20
2023-02-19T07:51:36.968Z,9.20
2023-02-19T07:54:05.479Z,9.10
2023-02-19T07:56:35.916Z,9.10
2023-02-19T07:59:04.664Z,9.10
2023-02-19T08:01:51.313Z,9.00
2023-02-19T08:04:19.379Z,9.00
2023-02-19T08:06:48.100Z,9.00
2023-02-19T08:09:16.461Z,9.00
2023-02-19T08:12:05.813Z,9.00
2023-02-19T08:14:34.341Z,9.00
2023-02-19T08:17:03.511Z,9.00
2023-02-19T08:19:36.316Z,8.90
2023-02-19T08:22:04.415Z,8.90
2023-02-19T08:24:34.217Z,8.90
2023-02-19T08:27:03.733Z,8.80
2023-02-19T08:29:35.204Z,8.80
2023-02-19T08:32:07.040Z,8.80
2023-02-19T08:34:35.391Z,8.80
2023-02-19T08:37:03.703Z,8.70
2023-02-19T08:39:35.079Z,8.70
2023-02-19T08:42:05.578Z,8.70
2023-02-19T08:44:34.441Z,8.70
2023-02-19T08:47:03.079Z,8.70
2023-02-19T08:49:31.772Z,8.70
2023-02-19T08:52:00.550Z,8.60
2023-02-19T08:54:29.334Z,8.60
2023-02-19T08:56:57.688Z,8.60
2023-02-19T08:59:29.477Z,8.70
2023-02-19T09:01:59.360Z,8.70
2023-02-19T09:04:34.398Z,8.70
2023-02-19T09:07:08.087Z,8.80
2023-02-19T09:09:41.948Z,8.80
2023-02-19T09:12:16.978Z,8.90
2023-02-19T09:14:53.793Z,8.90
2023-02-19T09:17:22.988Z,8.90
2023-02-19T09:19:51.465Z,9.00
2023-02-19T09:22:27.432Z,9.10
2023-02-19T09:24:58.609Z,9.00
2023-02-19T09:27:32.438Z,9.10
2023-02-19T09:30:02.942Z,9.00
2023-02-19T09:32:33.104Z,9.00
2023-02-19T09:35:08.383Z,9.00
2023-02-19T09:37:36.723Z,8.90
2023-02-19T09:40:06.242Z,9.00
2023-02-19T09:42:37.453Z,8.90
2023-02-19T09:45:07.693Z,9.00
2023-02-19T09:47:36.182Z,8.90
2023-02-19T09:50:11.393Z,8.90
2023-02-19T09:52:45.362Z,9.10
2023-02-19T09:55:18.240Z,9.10
2023-02-19T09:57:48.221Z,9.10
2023-02-19T10:00:25.580Z,9.20
2023-02-19T10:02:56.459Z,9.30
2023-02-19T10:05:26.332Z,9.30
2023-02-19T10:07:57.014Z,9.40
2023-02-19T10:10:34.778Z,9.50
2023-02-19T10:13:22.316Z,9.50
2023-02-19T10:15:55.125Z,9.60
2023-02-19T10:18:28.714Z,9.60
2023-02-19T10:20:57.872Z,9.60
2023-02-19T10:23:28.704Z,9.60
2023-02-19T10:26:02.441Z,9.70
2023-02-19T10:28:34.020Z,9.70
2023-02-19T10:31:17.933Z,9.70
2023-02-19T10:33:52.478Z,9.70
2023-02-19T10:36:35.789Z,9.70
2023-02-19T10:39:09.209Z,9.70
2023-02-19T10:41:45.595Z,9.70
2023-02-19T10:44:19.312Z,9.90
2023-02-19T10:46:51.836Z,9.90
2023-02-19T10:49:36.497Z,9.90
2023-02-19T10:52:17.819Z,9.90
2023-02-19T10:54:49.486Z,9.90
2023-02-19T10:57:37.516Z,10.00
2023-02-19T11:00:22.874Z,10.00
2023-02-19T11:03:17.989Z,9.90
2023-02-19T11:06:03.638Z,10.00
2023-02-19T11:08:34.465Z,10.00
2023-02-19T11:11:12.942Z,10.10
2023-02-19T11:13:44.254Z,10.00
2023-02-19T11:16:15.753Z,10.00
2023-02-19T11:19:02.653Z,10.00
2023-02-19T11:21:40.378Z,10.10
2023-02-19T11:24:29.165Z,10.00
2023-02-19T11:27:08.813Z,10.10
2023-02-19T11:29:40.237Z,10.10
2023-02-19T11:32:26.653Z,10.10
2023-02-19T11:35:24.279Z,10.00
2023-02-19T11:38:01.015Z,10.00
2023-02-19T11:40:45.887Z,10.00
2023-02-19T11:43:34.093Z,10.00
2023-02-19T11:46:10.808Z,9.90
2023-02-19T11:48:53.767Z,10.00
2023-02-19T11:51:52.769Z,9.90
2023-02-19T11:54:45.797Z,10.00
2023-02-19T11:57:40.812Z,10.00
2023-02-19T12:00:31.576Z,10.10
2023-02-19T12:03:36.979Z,10.40
2023-02-19T12:06:21.115Z,10.90
2023-02-19T12:09:22.205Z,11.20
2023-02-19T12:12:24.430Z,11.20
2023-02-19T12:15:36.706Z,11.10
2023-02-19T12:18:54.792Z,11.00
2023-02-19T12:21:42.610Z,10.90
2023-02-19T12:24:33.574Z,10.80
2023-02-19T12:27:16.829Z,10.90
2023-02-19T12:30:00.677Z,11.00
2023-02-19T12:32:56.983Z,11.20
2023-02-19T12:35:53.767Z,11.30
2023-02-19T12:38:27.110Z,11.20
2023-02-19T12:41:14.172Z,11.20
2023-02-19T12:43:48.544Z,11.10
2023-02-19T12:46:24.820Z,11.30
2023-02-19T12:49:02.994Z,11.30
2023-02-19T12:51:44.648Z,11.50
2023-02-19T12:54:40.858Z,11.60
2023-02-19T12:57:16.893Z,11.50
2023-02-19T12:59:52.872Z,11.40
2023-02-19T13:02:34.330Z,11.40
2023-02-19T13:05:08.325Z,11.40
2023-02-19T13:07:51.301Z,11.50
2023-02-19T13:10:28.451Z,11.50
2023-02-19T13:13:05.845Z,11.40
2023-02-19T13:15:38.692Z,11.20
2023-02-19T13:18:16.762Z,11.30
2023-02-19T13:20:47.028Z,11.40
2023-02-19T13:23:39.494Z,11.30
2023-02-19T13:26:33.690Z,11.20
2023-02-19T13:29:18.846Z,11.10
2023-02-19T13:32:05.755Z,11.00
2023-02-19T13:34:48.087Z,10.90
2023-02-19T13:37:19.340Z,10.70
2023-02-19T13:39:52.356Z,10.60
2023-02-19T13:42:31.337Z,10.60
2023-02-19T13:45:10.723Z,10.60
2023-02-19T13:48:05.822Z,10.70
2023-02-19T13:50:35.587Z,10.80
2023-02-19T13:53:31.257Z,10.80
2023-02-19T13:56:03.260Z,10.90
2023-02-19T13:59:14.117Z,11.00
2023-02-19T14:02:27.892Z,11.10
2023-02-19T14:05:00.183Z,11.10
2023-02-19T14:08:02.511Z,11.10
2023-02-19T14:11:19.492Z,11.10
2023-02-19T14:14:06.722Z,11.20
2023-02-19T14:16:57.949Z,11.20
2023-02-19T14:19:56.038Z,11.10
2023-02-19T14:23:09.060Z,10.90
2023-02-19T14:25:42.718Z,10.80
2023-02-19T14:28:36.376Z,10.90
2023-02-19T14:31:12.757Z,10.80
2023-02-19T14:33:47.227Z,10.90
2023-02-19T14:36:29.456Z,10.80
2023-02-19T14:39:01.086Z,10.80
2023-02-19T14:41:35.538Z,10.70
2023-02-19T14:44:12.882Z,10.70
2023-02-19T14:47:07.165Z,10.80
2023-02-19T14:49:43.651Z,10.80
2023-02-19T14:52:25.114Z,10.70
2023-02-19T14:54:59.158Z,10.60
2023-02-19T14:57:32.083Z,10.60
2023-02-19T15:00:03.820Z,10.50
2023-02-19T15:02:33.652Z,10.50
2023-02-19T15:05:03.662Z,10.50
2023-02-19T15:07:35.388Z,10.60
2023-02-19T15:10:07.467Z,10.60
2023-02-19T15:12:47.816Z,10.70
2023-02-19T15:15:22.238Z,10.70
2023-02-19T15:17:53.843Z,10.80
2023-02-19T15:20:26.786Z,10.80
2023-02-19T15:23:08.538Z,10.80
2023-02-19T15:25:44.168Z,10.80
2023-02-19T15:28:40.176Z,10.90
2023-02-19T15:31:28.747Z,10.60
2023-02-19T15:33:57.550Z,10.50
2023-02-19T15:36:31.004Z,10.40
2023-02-19T15:39:03.829Z,10.50
2023-02-19T15:41:35.886Z,10.50
2023-02-19T15:44:22.378Z,10.50
2023-02-19T15:46:52.265Z,10.40
2023-02-19T15:49:25.383Z,10.40
2023-02-19T15:51:59.972Z,10.40
2023-02-19T15:54:33.695Z,10.40
2023-02-19T15:57:08.123Z,10.40
2023-02-19T15:59:46.830Z,10.30
2023-02-19T16:02:23.918Z,10.20
2023-02-19T16:05:02.788Z,10.20
2023-02-19T16:07:56.697Z,10.30
2023-02-19T16:10:52.007Z,10.10
2023-02-19T16:13:27.977Z,10.10
2023-02-19T16:16:09.592Z,10.10
2023-02-19T16:18:48.382Z,10.10
2023-02-19T16:21:21.529Z,10.10
2023-02-19T16:23:59.360Z,10.00
2023-02-19T16:26:31.938Z,9.90
2023-02-19T16:29:00.738Z,9.90
2023-02-19T16:31:35.983Z,10.00
2023-02-19T16:34:21.852Z,10.00
2023-02-19T16:36:51.319Z,9.90
2023-02-19T16:39:24.534Z,10.00
2023-02-19T16:42:14.862Z,9.90
2023-02-19T16:44:51.699Z,9.90
2023-02-19T16:47:31.800Z,9.90
2023-02-19T16:50:03.758Z,9.90
2023-02-19T16:52:39.367Z,9.90
2023-02-19T16:55:15.074Z,9.90
2023-02-19T16:57:54.801Z,9.80
2023-02-19T17:00:27.499Z,9.80
2023-02-19T17:02:59.937Z,9.80
2023-02-19T17:05:41.744Z,9.70
2023-02-19T17:08:34.379Z,9.70
2023-02-19T17:11:16.298Z,9.60
2023-02-19T17:13:52.201Z,9.50
2023-02-19T17:16:26.412Z,9.50
2023-02-19T17:18:56.133Z,9.40
2023-02-19T17:21:28.889Z,9.40
2023-02-19T17:24:13.569Z,9.30
2023-02-19T17:26:42.572Z,9.30
2023-02-19T17:29:32.212Z,9.30
2023-02-19T17:32:00.982Z,9.30
2023-02-19T17:34:29.880Z,9.30
2023-02-19T17:37:05.815Z,9.30
2023-02-19T17:39:37.563Z,9.40
2023-02-19T17:42:08.502Z,9.40
2023-02-19T17:44:39.645Z,9.30
2023-02-19T17:47:08.241Z,9.30
2023-02-19T17:49:36.901Z,9.30
2023-02-19T17:52:17.207Z,9.30
2023-02-19T17:54:45.748Z,9.30
2023-02-19T17:57:13.993Z,9.20
2023-02-19T17:59:44.278Z,9.20
2023-02-19T18:02:15.896Z,9.30
2023-02-19T18:04:46.859Z,9.30
2023-02-19T18:07:19.883Z,9.30
2023-02-19T18:09:48.065Z,9.20
2023-02-19T18:12:19.056Z,9.20
2023-02-19T18:14:53.093Z,9.20
2023-02-19T18:17:21.708Z,9.10
2023-02-19T18:19:59.742Z,9.10
2023-02-19T18:22:28.485Z,9.10
2023-02-19T18:24:57.098Z,9.00
2023-02-19T18:27:25.306Z,9.00
2023-02-19T18:30:00.455Z,9.00
2023-02-19T18:32:30.310Z,9.00
2023-02-19T18:35:02.639Z,9.10
2023-02-19T18:37:34.386Z,9.10
2023-02-19T18:40:13.439Z,9.10
2023-02-19T18:42:44.419Z,9.00
2023-02-19T18:45:14.890Z,9.00
2023-02-19T18:47:43.809Z,9.10
2023-02-19T18:50:12.920Z,9.00
2023-02-19T18:52:43.382Z,8.90
2023-02-19T18:55:14.819Z,8.80
2023-02-19T18:57:44.225Z,8.80
2023-02-19T19:00:20.479Z,8.80
2023-02-19T19:02:52.021Z,8.80
2023-02-19T19:05:24.044Z,8.70
2023-02-19T19:07:54.285Z,8.70
2023-02-19T19:10:27.492Z,8.70
2023-02-19T19:12:56.543Z,8.70
2023-02-19T19:15:28.786Z,8.70
2023-02-19T19:17:59.625Z,8.70
2023-02-19T19:20:28.122Z,8.70
2023-02-19T19:22:59.033Z,8.70
2023-02-19T19:25:29.161Z,8.70
2023-02-19T19:28:02.929Z,8.70
2023-02-19T19:30:33.748Z,8.70
2023-02-19T19:33:05.029Z,8.70
2023-02-19T19:35:36.424Z,8.70
2023-02-19T19:38:29.593Z,8.70
2023-02-19T19:41:03.994Z,8.60
2023-02-19T19:43:39.558Z,8.60
2023-02-19T19:46:12.722Z,8.70
2023-02-19T19:48:43.607Z,8.70
2023-02-19T19:51:12.771Z,8.70
2023-02-19T19:53:58.761Z,8.60
2023-02-19T19:56:27.234Z,8.60
2023-02-19T19:59:03.628Z,8.60
2023-02-19T20:01:33.918Z,8.60
2023-02-19T20:04:10.916Z,8.60
2023-02-19T20:06:40.512Z,8.60
2023-02-19T20:09:09.160Z,8.60
2023-02-19T20:11:53.408Z,8.50
2023-02-19T20:14:23.897Z,8.60
2023-02-19T20:16:54.107Z,8.60
2023-02-19T20:19:29.420Z,8.70
2023-02-19T20:21:57.866Z,8.70
2023-02-19T20:24:30.519Z,8.70
2023-02-19T20:27:03.297Z,8.70
2023-02-19T20:29:33.823Z,8.70
2023-02-19T20:32:04.683Z,8.60
2023-02-19T20:37:14.493Z,8.60
2023-02-19T20:39:44.889Z,8.60
2023-02-19T20:42:21.583Z,8.50
2023-02-19T20:45:02.616Z,8.60
2023-02-19T20:47:40.189Z,8.60
2023-02-19T20:50:12.214Z,8.50
2023-02-19T20:52:43.991Z,8.50
2023-02-19T20:55:20.360Z,8.60
2023-02-19T20:57:57.646Z,8.50
2023-02-19T21:00:30.020Z,8.40
2023-02-19T21:03:00.459Z,8.40
2023-02-19T21:08:31.464Z,8.40
2023-02-19T21:11:10.728Z,8.20
2023-02-19T21:13:44.058Z,8.20
2023-02-19T21:16:17.006Z,8.10
2023-02-19T21:18:48.851Z,8.00
2023-02-19T21:21:30.125Z,7.90
2023-02-19T21:24:08.733Z,7.90
2023-02-19T21:26:44.283Z,7.80
2023-02-19T21:29:21.532Z,7.90
2023-02-19T21:31:54.742Z,8.00
2023-02-19T21:34:30.340Z,8.10
2023-02-19T21:37:03.856Z,8.10
2023-02-19T21:39:50.061Z,8.10
2023-02-19T21:42:27.734Z,8.10
2023-02-19T21:44:58.850Z,8.20
2023-02-19T21:47:30.237Z,8.20
2023-02-19T21:50:14.499Z,8.10
2023-02-19T21:52:48.045Z,8.10
2023-02-19T21:55:18.917Z,8.10
2023-02-19T21:57:48.766Z,8.10
2023-02-19T22:00:25.140Z,8.10
2023-02-19T22:02:59.484Z,8.00
2023-02-19T22:05:31.840Z,8.10
2023-02-19T22:08:03.145Z,8.10
2023-02-19T22:10:35.689Z,8.10
2023-02-19T22:13:06.933Z,8.10
2023-02-19T22:15:41.703Z,8.00
2023-02-19T22:18:23.380Z,7.90
2023-02-19T22:21:02.554Z,8.00
2023-02-19T22:23:40.622Z,7.90
2023-02-19T22:26:20.647Z,7.90
2023-02-19T22:28:54.338Z,7.90
2023-02-19T22:31:35.417Z,8.00
2023-02-19T22:34:09.550Z,8.00
2023-02-19T22:36:41.976Z,8.00
2023-02-19T22:39:17.116Z,8.10
2023-02-19T22:41:54.559Z,8.20
2023-02-19T22:44:26.357Z,8.20
2023-02-19T22:46:58.866Z,8.10
2023-02-19T22:49:29.488Z,8.10
2023-02-19T22:52:10.115Z,8.00
2023-02-19T22:54:42.517Z,8.10
2023-02-19T22:57:12.998Z,8.10
2023-02-19T22:59:55.505Z,8.00
2023-02-19T23:02:24.559Z,8.10
2023-02-19T23:04:56.205Z,8.10
2023-02-19T23:07:28.941Z,8.00
2023-02-19T23:10:02.451Z,8.00
2023-02-19T23:12:43.181Z,8.00
2023-02-19T23:15:14.134Z,7.80
2023-02-19T23:17:49.387Z,7.80
2023-02-19T23:20:21.289Z,7.90
2023-02-19T23:23:02.904Z,8.00
2023-02-19T23:25:33.886Z,7.90
2023-02-19T23:28:05.258Z,7.90
2023-02-19T23:30:38.162Z,7.90
2023-02-19T23:33:06.748Z,7.90
2023-02-19T23:35:39.547Z,7.80
2023-02-19T23:38:15.143Z,7.80
2023-02-19T23:40:43.886Z,7.80
2023-02-19T23:43:26.433Z,7.70
2023-02-19T23:46:00.187Z,7.80
2023-02-19T23:48:32.691Z,7.70
2023-02-19T23:51:02.116Z,7.70
2023-02-19T23:53:34.852Z,7.70
2023-02-19T23:56:12.198Z,7.60
2023-02-19T23:58:41.193Z,7.50
